Архив погоды в Балашове

Метеограмма Балашов
Пятница, 26 Мая
Время местн. Темп Ветер Видим Явления Облачность нижн/средн/верх Атм. давл. Влжн Точка росы ВНГО R Сост. почвы Tg s
Напр Скр Прв ур.ст ур.м изм
03:00 +11.8° Ю-З 2 - 20 км - преимущественно облачно 748 762 -0.4 89% +10° 1 км - - - -
00:00 +12.9° Ю 2 - 20 км - преимущественно облачно 749 763 0 85% +10.5° 1 км - - - -
Четверг, 25 Мая
Время местн. Темп Ветер Видим Явления Облачность нижн/средн/верх Атм. давл. Влжн Точка росы ВНГО R Сост. почвы Tg s
Напр Скр Прв ур.ст ур.м изм
21:00 +14.5° С 1 - 20 км небо без изменений {гроза} преимущественно облачно 749 763 +0.1 76% +10.3° 1 км - - - -
18:00 +19° Ю 3 - 20 км облака развиваются {гроза} облачно 749 762 +0.5 59% +10.7° 1 км - - - -
15:00 +22.9° Ю-З 4 - 20 км - преимущественно облачно 748 762 -0.9 44% +9.9° 1 км - - - -
12:00 +24.3° Ю 2 - 20 км - облачно с прояснениями 749 763 -0.3 39% +9.5° 1.5 км - - - -
09:00 +20.2° Ю,Ю-З 2 - 20 км - переменная облачность 749 763 +0.3 54% +10.7° 1.5 км - - - -
06:00 +15.4° Ю 1 - более 50 км - незначительная облачность 749 763 +0.5 74% +10.8° более 2.5 км 0 Сухая (без трещин) +12° -
03:00 +17.5° Ю-З 2 - 50 км - переменная облачность 749 762 -0.5 49% +6.8° - - - - -
00:00 +13.5° Ю 2 - 50 км - облачно с прояснениями 749 763 +0.3 76% +9.3° - - - - -
Среда, 24 Мая
Время местн. Темп Ветер Видим Явления Облачность нижн/средн/верх Атм. давл. Влжн Точка росы ВНГО R Сост. почвы Tg s
Напр Скр Прв ур.ст ур.м изм
21:00 +15.4° Ю,Ю-З 2 - более 50 км - переменная облачность 749 763 +1.2 66% +9.1° более 2.5 км - - - -
18:00 +24.1° Ю-З 2 - 50 км - переменная облачность 748 761 -0.4 30% +5.3° 1.5 км - - - -
15:00 +23° З 2 - 50 км - переменная облачность 748 762 -0.4 34% +6.3° 1.5 км - - - -
12:00 +22.3° Ю-З 3 - более 50 км - переменная облачность 748 762 +0.1 40% +8° 1.5 км - - - -
09:00 +18.3° З 2 - 50 км - ясно 749 762 +0.1 54% +8.9° более 2.5 км - - - -
06:00 +11° Ю,Ю-З 2 - 50 км - ясно 749 763 +0.2 77% +7.1° более 2.5 км - Влажная (без луж) - -
03:00 +10.1° Ю 2 - 20 км - преимущественно облачно 748 762 +0.1 83% +7.3° более 2.5 км - - - -
00:00 +10.9° Ю,Ю-З 2 - 20 км - переменная облачность 748 762 +0.5 70% +5.7° 1.5 км - - - -
Вторник, 23 Мая
Время местн. Темп Ветер Видим Явления Облачность нижн/средн/верх Атм. давл. Влжн Точка росы ВНГО R Сост. почвы Tg s
Напр Скр Прв ур.ст ур.м изм
21:00 +11.2° Ю,Ю-З 2 - 20 км - преимущественно облачно 748 762 +0.8 64% +4.6° - - - - -
18:00 +17.9° С-З 2 - более 50 км - переменная облачность 747 761 -0.3 30% +0.1° 1.5 км 0 - - -
15:00 +16.9° З,С-З 3 - 50 км - переменная облачность 747 761 -0.2 29% -1.2° 1.5 км - - - -
12:00 +15.1° С-З 4 - 50 км - переменная облачность 747 761 +0.5 31% -1.9° 1.5 км - - - -
09:00 +13.5° С,С-З 3 - более 50 км - переменная облачность 747 761 +0.9 38% -0.5° 1.5 км - - - -
06:00 +5.2° С 1 - 20 км - переменная облачность 746 761 +1.2 76% +1.3° - - Влажная (без луж) - -
03:00 +5.9° С,С-З 2 - 20 км - ясно 745 759 +0.7 75% +1.8° более 2.5 км - - - -
00:00 +7.6° С 2 - 20 км - ясно 745 759 +0.8 66% +1.7° более 2.5 км - - - -